sensor_id;sensor_type;location;lat;lon;timestamp;temperature;humidity
11188;DHT22;5650;52.700;7.306;2023-06-14T00:00:43;17.90;79.00
11188;DHT22;5650;52.700;7.306;2023-06-14T00:03:10;17.90;79.30
11188;DHT22;5650;52.700;7.306;2023-06-14T00:05:45;17.80;79.40
11188;DHT22;5650;52.700;7.306;2023-06-14T00:08:13;17.80;79.70
11188;DHT22;5650;52.700;7.306;2023-06-14T00:10:42;17.70;80.10
11188;DHT22;5650;52.700;7.306;2023-06-14T00:13:09;17.70;80.20
11188;DHT22;5650;52.700;7.306;2023-06-14T00:15:37;17.60;80.50
11188;DHT22;5650;52.700;7.306;2023-06-14T00:18:04;17.60;80.70
11188;DHT22;5650;52.700;7.306;2023-06-14T00:20:44;17.60;81.10
11188;DHT22;5650;52.700;7.306;2023-06-14T00:23:15;17.50;81.40
11188;DHT22;5650;52.700;7.306;2023-06-14T00:25:46;17.50;81.60
11188;DHT22;5650;52.700;7.306;2023-06-14T00:28:20;17.40;82.00
11188;DHT22;5650;52.700;7.306;2023-06-14T00:30:56;17.40;82.40
11188;DHT22;5650;52.700;7.306;2023-06-14T00:33:27;17.40;82.50
11188;DHT22;5650;52.700;7.306;2023-06-14T00:35:54;17.30;82.80
11188;DHT22;5650;52.700;7.306;2023-06-14T00:38:21;17.30;83.20
11188;DHT22;5650;52.700;7.306;2023-06-14T00:40:50;17.30;83.50
11188;DHT22;5650;52.700;7.306;2023-06-14T00:43:17;17.20;83.60
11188;DHT22;5650;52.700;7.306;2023-06-14T00:45:47;17.20;83.80
11188;DHT22;5650;52.700;7.306;2023-06-14T00:48:17;17.20;84.10
11188;DHT22;5650;52.700;7.306;2023-06-14T00:50:45;17.10;84.40
11188;DHT22;5650;52.700;7.306;2023-06-14T00:53:14;17.10;84.70
11188;DHT22;5650;52.700;7.306;2023-06-14T00:55:46;17.10;85.00
11188;DHT22;5650;52.700;7.306;2023-06-14T00:58:15;17.00;85.10
11188;DHT22;5650;52.700;7.306;2023-06-14T01:00:45;17.00;85.50
11188;DHT22;5650;52.700;7.306;2023-06-14T01:03:14;17.00;85.70
11188;DHT22;5650;52.700;7.306;2023-06-14T01:05:59;16.90;86.20
11188;DHT22;5650;52.700;7.306;2023-06-14T01:08:43;16.90;86.70
11188;DHT22;5650;52.700;7.306;2023-06-14T01:11:24;16.80;87.10
11188;DHT22;5650;52.700;7.306;2023-06-14T01:14:00;16.70;87.70
11188;DHT22;5650;52.700;7.306;2023-06-14T01:16:29;16.70;87.90
11188;DHT22;5650;52.700;7.306;2023-06-14T01:18:58;16.70;88.30
11188;DHT22;5650;52.700;7.306;2023-06-14T01:21:30;16.60;88.50
11188;DHT22;5650;52.700;7.306;2023-06-14T01:24:08;16.60;89.00
11188;DHT22;5650;52.700;7.306;2023-06-14T01:26:41;16.50;89.50
11188;DHT22;5650;52.700;7.306;2023-06-14T01:29:15;16.50;90.00
11188;DHT22;5650;52.700;7.306;2023-06-14T01:31:43;16.50;90.10
11188;DHT22;5650;52.700;7.306;2023-06-14T01:34:11;16.40;90.30
11188;DHT22;5650;52.700;7.306;2023-06-14T01:36:42;16.40;90.70
11188;DHT22;5650;52.700;7.306;2023-06-14T01:39:14;16.30;90.90
11188;DHT22;5650;52.700;7.306;2023-06-14T01:41:43;16.30;91.20
11188;DHT22;5650;52.700;7.306;2023-06-14T01:44:12;16.30;91.40
11188;DHT22;5650;52.700;7.306;2023-06-14T01:46:41;16.20;91.70
11188;DHT22;5650;52.700;7.306;2023-06-14T01:49:08;16.20;92.10
11188;DHT22;5650;52.700;7.306;2023-06-14T01:51:38;16.20;92.40
11188;DHT22;5650;52.700;7.306;2023-06-14T01:54:09;16.20;92.60
11188;DHT22;5650;52.700;7.306;2023-06-14T01:56:37;16.10;93.00
11188;DHT22;5650;52.700;7.306;2023-06-14T01:59:13;16.10;93.30
11188;DHT22;5650;52.700;7.306;2023-06-14T02:01:41;16.10;93.80
11188;DHT22;5650;52.700;7.306;2023-06-14T02:04:08;16.00;94.10
11188;DHT22;5650;52.700;7.306;2023-06-14T02:06:35;16.00;94.40
11188;DHT22;5650;52.700;7.306;2023-06-14T02:09:03;16.00;94.80
11188;DHT22;5650;52.700;7.306;2023-06-14T02:11:30;16.00;95.10
11188;DHT22;5650;52.700;7.306;2023-06-14T02:14:02;15.90;95.40
11188;DHT22;5650;52.700;7.306;2023-06-14T02:16:29;15.90;95.80
11188;DHT22;5650;52.700;7.306;2023-06-14T02:18:59;15.80;96.20
11188;DHT22;5650;52.700;7.306;2023-06-14T02:21:27;15.80;96.60
11188;DHT22;5650;52.700;7.306;2023-06-14T02:23:54;15.80;97.20
11188;DHT22;5650;52.700;7.306;2023-06-14T02:26:42;15.80;97.70
11188;DHT22;5650;52.700;7.306;2023-06-14T02:29:11;15.70;98.30
11188;DHT22;5650;52.700;7.306;2023-06-14T02:31:46;15.60;98.70
11188;DHT22;5650;52.700;7.306;2023-06-14T02:34:16;15.60;99.30
11188;DHT22;5650;52.700;7.306;2023-06-14T02:36:50;15.60;99.60
11188;DHT22;5650;52.700;7.306;2023-06-14T02:39:24;15.50;99.90
11188;DHT22;5650;52.700;7.306;2023-06-14T02:41:54;15.50;99.90
11188;DHT22;5650;52.700;7.306;2023-06-14T02:44:26;15.50;99.90
11188;DHT22;5650;52.700;7.306;2023-06-14T02:46:53;15.40;99.90
11188;DHT22;5650;52.700;7.306;2023-06-14T02:49:21;15.40;99.90
11188;DHT22;5650;52.700;7.306;2023-06-14T02:51:48;15.40;99.90
11188;DHT22;5650;52.700;7.306;2023-06-14T02:54:15;15.40;99.90
11188;DHT22;5650;52.700;7.306;2023-06-14T02:56:48;15.40;99.90
11188;DHT22;5650;52.700;7.306;2023-06-14T02:59:19;15.30;99.90
11188;DHT22;5650;52.700;7.306;2023-06-14T03:01:48;15.30;99.90
11188;DHT22;5650;52.700;7.306;2023-06-14T03:04:16;15.30;99.90
11188;DHT22;5650;52.700;7.306;2023-06-14T03:06:45;15.20;99.90
11188;DHT22;5650;52.700;7.306;2023-06-14T03:09:16;15.30;99.90
11188;DHT22;5650;52.700;7.306;2023-06-14T03:11:55;15.20;99.90
11188;DHT22;5650;52.700;7.306;2023-06-14T03:14:28;15.20;99.90
11188;DHT22;5650;52.700;7.306;2023-06-14T03:17:07;15.20;99.90
11188;DHT22;5650;52.700;7.306;2023-06-14T03:19:34;15.20;99.90
11188;DHT22;5650;52.700;7.306;2023-06-14T03:22:07;15.20;99.90
11188;DHT22;5650;52.700;7.306;2023-06-14T03:24:36;15.10;99.90
11188;DHT22;5650;52.700;7.306;2023-06-14T03:27:04;15.10;99.90
11188;DHT22;5650;52.700;7.306;2023-06-14T03:29:31;15.10;99.90
11188;DHT22;5650;52.700;7.306;2023-06-14T03:32:01;15.10;99.90
11188;DHT22;5650;52.700;7.306;2023-06-14T03:34:31;15.10;99.90
11188;DHT22;5650;52.700;7.306;2023-06-14T03:36:58;15.10;99.90
11188;DHT22;5650;52.700;7.306;2023-06-14T03:39:26;15.10;99.90
11188;DHT22;5650;52.700;7.306;2023-06-14T03:41:56;15.10;99.90
11188;DHT22;5650;52.700;7.306;2023-06-14T03:44:23;15.10;99.90
11188;DHT22;5650;52.700;7.306;2023-06-14T03:46:50;15.10;99.90
11188;DHT22;5650;52.700;7.306;2023-06-14T03:49:19;15.10;99.90
11188;DHT22;5650;52.700;7.306;2023-06-14T03:51:47;15.10;99.90
11188;DHT22;5650;52.700;7.306;2023-06-14T03:54:16;15.10;99.90
11188;DHT22;5650;52.700;7.306;2023-06-14T03:56:47;15.10;99.90
11188;DHT22;5650;52.700;7.306;2023-06-14T03:59:17;15.10;99.90
11188;DHT22;5650;52.700;7.306;2023-06-14T04:01:50;15.10;99.90
11188;DHT22;5650;52.700;7.306;2023-06-14T04:04:27;15.10;99.90
11188;DHT22;5650;52.700;7.306;2023-06-14T04:06:55;15.20;99.90
11188;DHT22;5650;52.700;7.306;2023-06-14T04:09:36;15.50;99.90
11188;DHT22;5650;52.700;7.306;2023-06-14T04:12:04;16.10;99.90
11188;DHT22;5650;52.700;7.306;2023-06-14T04:14:31;16.80;99.90
11188;DHT22;5650;52.700;7.306;2023-06-14T04:16:59;17.40;99.90
11188;DHT22;5650;52.700;7.306;2023-06-14T04:19:30;17.90;99.90
11188;DHT22;5650;52.700;7.306;2023-06-14T04:22:00;18.30;99.90
11188;DHT22;5650;52.700;7.306;2023-06-14T04:24:28;18.60;99.90
11188;DHT22;5650;52.700;7.306;2023-06-14T04:26:58;18.80;99.30
11188;DHT22;5650;52.700;7.306;2023-06-14T04:29:29;19.10;98.80
11188;DHT22;5650;52.700;7.306;2023-06-14T04:31:57;19.30;97.50
11188;DHT22;5650;52.700;7.306;2023-06-14T04:34:31;19.40;96.80
11188;DHT22;5650;52.700;7.306;2023-06-14T04:37:02;19.30;96.00
11188;DHT22;5650;52.700;7.306;2023-06-14T04:39:31;19.10;96.10
11188;DHT22;5650;52.700;7.306;2023-06-14T04:41:58;18.90;96.00
11188;DHT22;5650;52.700;7.306;2023-06-14T04:44:29;18.80;96.10
11188;DHT22;5650;52.700;7.306;2023-06-14T04:47:00;18.70;96.30
11188;DHT22;5650;52.700;7.306;2023-06-14T04:49:27;18.70;96.30
11188;DHT22;5650;52.700;7.306;2023-06-14T04:51:57;18.70;96.40
11188;DHT22;5650;52.700;7.306;2023-06-14T04:54:27;19.00;96.40
11188;DHT22;5650;52.700;7.306;2023-06-14T04:57:00;19.50;95.40
11188;DHT22;5650;52.700;7.306;2023-06-14T04:59:31;20.00;94.70
11188;DHT22;5650;52.700;7.306;2023-06-14T05:02:04;20.50;93.70
11188;DHT22;5650;52.700;7.306;2023-06-14T05:04:40;21.00;92.30
11188;DHT22;5650;52.700;7.306;2023-06-14T05:07:09;21.00;91.40
11188;DHT22;5650;52.700;7.306;2023-06-14T05:09:42;20.90;91.50
11188;DHT22;5650;52.700;7.306;2023-06-14T05:12:09;20.70;91.50
11188;DHT22;5650;52.700;7.306;2023-06-14T05:14:39;20.50;91.80
11188;DHT22;5650;52.700;7.306;2023-06-14T05:17:06;20.70;92.30
11188;DHT22;5650;52.700;7.306;2023-06-14T05:19:46;21.00;91.80
11188;DHT22;5650;52.700;7.306;2023-06-14T05:22:17;21.70;90.70
11188;DHT22;5650;52.700;7.306;2023-06-14T05:24:44;22.10;89.90
11188;DHT22;5650;52.700;7.306;2023-06-14T05:27:13;22.60;88.90
11188;DHT22;5650;52.700;7.306;2023-06-14T05:29:40;23.00;85.90
11188;DHT22;5650;52.700;7.306;2023-06-14T05:32:11;23.30;85.80
11188;DHT22;5650;52.700;7.306;2023-06-14T05:34:38;23.60;83.50
11188;DHT22;5650;52.700;7.306;2023-06-14T05:37:07;23.80;82.50
11188;DHT22;5650;52.700;7.306;2023-06-14T05:39:36;24.00;82.10
11188;DHT22;5650;52.700;7.306;2023-06-14T05:42:06;24.30;80.70
11188;DHT22;5650;52.700;7.306;2023-06-14T05:44:34;24.30;79.80
11188;DHT22;5650;52.700;7.306;2023-06-14T05:47:04;24.50;80.20
11188;DHT22;5650;52.700;7.306;2023-06-14T05:49:31;24.30;78.80
11188;DHT22;5650;52.700;7.306;2023-06-14T05:52:01;24.50;80.20
11188;DHT22;5650;52.700;7.306;2023-06-14T05:54:31;24.80;78.60
11188;DHT22;5650;52.700;7.306;2023-06-14T05:57:00;24.90;78.60
11188;DHT22;5650;52.700;7.306;2023-06-14T05:59:30;25.20;77.80
11188;DHT22;5650;52.700;7.306;2023-06-14T06:02:02;25.40;77.10
11188;DHT22;5650;52.700;7.306;2023-06-14T06:04:29;25.60;76.20
11188;DHT22;5650;52.700;7.306;2023-06-14T06:06:56;25.70;74.70
11188;DHT22;5650;52.700;7.306;2023-06-14T06:09:26;25.70;74.20
11188;DHT22;5650;52.700;7.306;2023-06-14T06:11:53;25.80;74.10
11188;DHT22;5650;52.700;7.306;2023-06-14T06:14:27;25.70;73.90
11188;DHT22;5650;52.700;7.306;2023-06-14T06:17:00;25.70;74.20
11188;DHT22;5650;52.700;7.306;2023-06-14T06:19:30;25.70;72.90
11188;DHT22;5650;52.700;7.306;2023-06-14T06:22:00;25.80;72.30
11188;DHT22;5650;52.700;7.306;2023-06-14T06:24:30;25.70;71.50
11188;DHT22;5650;52.700;7.306;2023-06-14T06:26:57;25.90;71.90
11188;DHT22;5650;52.700;7.306;2023-06-14T06:29:29;26.10;70.60
11188;DHT22;5650;52.700;7.306;2023-06-14T06:31:56;26.00;70.20
11188;DHT22;5650;52.700;7.306;2023-06-14T06:34:23;25.90;70.70
11188;DHT22;5650;52.700;7.306;2023-06-14T06:36:50;25.90;70.80
11188;DHT22;5650;52.700;7.306;2023-06-14T06:39:17;25.90;69.70
11188;DHT22;5650;52.700;7.306;2023-06-14T06:41:45;26.00;69.30
11188;DHT22;5650;52.700;7.306;2023-06-14T06:44:12;26.10;69.20
11188;DHT22;5650;52.700;7.306;2023-06-14T06:46:40;26.10;70.10
11188;DHT22;5650;52.700;7.306;2023-06-14T06:49:08;26.00;70.50
11188;DHT22;5650;52.700;7.306;2023-06-14T06:51:40;26.10;69.60
11188;DHT22;5650;52.700;7.306;2023-06-14T06:54:07;26.10;68.20
11188;DHT22;5650;52.700;7.306;2023-06-14T06:56:35;25.90;68.60
11188;DHT22;5650;52.700;7.306;2023-06-14T06:59:02;25.90;68.80
11188;DHT22;5650;52.700;7.306;2023-06-14T07:01:29;26.20;68.80
11188;DHT22;5650;52.700;7.306;2023-06-14T07:04:00;26.40;67.30
11188;DHT22;5650;52.700;7.306;2023-06-14T07:06:29;26.30;66.80
11188;DHT22;5650;52.700;7.306;2023-06-14T07:08:56;26.20;66.30
11188;DHT22;5650;52.700;7.306;2023-06-14T07:11:29;26.10;65.30
11188;DHT22;5650;52.700;7.306;2023-06-14T07:13:56;26.00;65.80
11188;DHT22;5650;52.700;7.306;2023-06-14T07:16:27;26.10;65.50
11188;DHT22;5650;52.700;7.306;2023-06-14T07:18:57;25.90;64.80
11188;DHT22;5650;52.700;7.306;2023-06-14T07:21:31;26.10;65.20
11188;DHT22;5650;52.700;7.306;2023-06-14T07:23:59;26.30;65.20
11188;DHT22;5650;52.700;7.306;2023-06-14T07:26:36;26.60;64.80
11188;DHT22;5650;52.700;7.306;2023-06-14T07:29:03;26.60;62.60
11188;DHT22;5650;52.700;7.306;2023-06-14T07:31:31;26.60;62.40
11188;DHT22;5650;52.700;7.306;2023-06-14T07:34:01;26.50;62.20
11188;DHT22;5650;52.700;7.306;2023-06-14T07:36:28;26.50;61.40
11188;DHT22;5650;52.700;7.306;2023-06-14T07:38:56;26.50;61.60
11188;DHT22;5650;52.700;7.306;2023-06-14T07:41:27;26.40;61.70
11188;DHT22;5650;52.700;7.306;2023-06-14T07:43:54;26.30;61.30
11188;DHT22;5650;52.700;7.306;2023-06-14T07:46:24;26.60;61.30
11188;DHT22;5650;52.700;7.306;2023-06-14T07:48:51;26.70;60.20
11188;DHT22;5650;52.700;7.306;2023-06-14T07:51:22;26.40;59.70
11188;DHT22;5650;52.700;7.306;2023-06-14T07:53:49;26.40;60.30
11188;DHT22;5650;52.700;7.306;2023-06-14T07:56:17;26.70;60.50
11188;DHT22;5650;52.700;7.306;2023-06-14T07:58:45;26.80;60.60
11188;DHT22;5650;52.700;7.306;2023-06-14T08:01:15;27.20;59.20
11188;DHT22;5650;52.700;7.306;2023-06-14T08:03:42;27.20;58.90
11188;DHT22;5650;52.700;7.306;2023-06-14T08:06:12;27.20;59.40
11188;DHT22;5650;52.700;7.306;2023-06-14T08:08:42;27.20;59.90
11188;DHT22;5650;52.700;7.306;2023-06-14T08:11:09;27.10;59.30
11188;DHT22;5650;52.700;7.306;2023-06-14T08:13:37;27.10;59.20
11188;DHT22;5650;52.700;7.306;2023-06-14T08:16:13;26.90;59.20
11188;DHT22;5650;52.700;7.306;2023-06-14T08:18:43;26.70;59.10
11188;DHT22;5650;52.700;7.306;2023-06-14T08:21:10;26.30;59.10
11188;DHT22;5650;52.700;7.306;2023-06-14T08:23:44;25.90;59.30
11188;DHT22;5650;52.700;7.306;2023-06-14T08:26:11;25.60;59.40
11188;DHT22;5650;52.700;7.306;2023-06-14T08:28:39;25.30;59.60
11188;DHT22;5650;52.700;7.306;2023-06-14T08:31:08;25.10;60.30
11188;DHT22;5650;52.700;7.306;2023-06-14T08:33:35;25.20;60.20
11188;DHT22;5650;52.700;7.306;2023-06-14T08:36:03;25.00;60.40
11188;DHT22;5650;52.700;7.306;2023-06-14T08:38:33;24.90;60.80
11188;DHT22;5650;52.700;7.306;2023-06-14T08:41:08;24.80;60.80
11188;DHT22;5650;52.700;7.306;2023-06-14T08:43:46;24.60;60.60
11188;DHT22;5650;52.700;7.306;2023-06-14T08:46:15;24.50;61.50
11188;DHT22;5650;52.700;7.306;2023-06-14T08:48:46;24.50;61.80
11188;DHT22;5650;52.700;7.306;2023-06-14T08:51:19;24.40;62.20
11188;DHT22;5650;52.700;7.306;2023-06-14T08:53:51;24.30;63.00
11188;DHT22;5650;52.700;7.306;2023-06-14T08:56:27;24.40;63.20
11188;DHT22;5650;52.700;7.306;2023-06-14T08:58:59;24.40;63.40
11188;DHT22;5650;52.700;7.306;2023-06-14T09:01:28;24.50;63.60
11188;DHT22;5650;52.700;7.306;2023-06-14T09:03:56;24.50;63.40
11188;DHT22;5650;52.700;7.306;2023-06-14T09:06:24;24.60;63.70
11188;DHT22;5650;52.700;7.306;2023-06-14T09:08:55;24.70;62.10
11188;DHT22;5650;52.700;7.306;2023-06-14T09:11:26;24.70;62.00
11188;DHT22;5650;52.700;7.306;2023-06-14T09:13:53;24.70;62.20
11188;DHT22;5650;52.700;7.306;2023-06-14T09:16:22;24.70;62.70
11188;DHT22;5650;52.700;7.306;2023-06-14T09:18:52;24.80;62.20
11188;DHT22;5650;52.700;7.306;2023-06-14T09:21:20;25.00;62.40
11188;DHT22;5650;52.700;7.306;2023-06-14T09:23:50;25.10;61.70
11188;DHT22;5650;52.700;7.306;2023-06-14T09:26:19;24.80;60.50
11188;DHT22;5650;52.700;7.306;2023-06-14T09:28:51;24.40;61.20
11188;DHT22;5650;52.700;7.306;2023-06-14T09:31:19;24.10;62.10
11188;DHT22;5650;52.700;7.306;2023-06-14T09:33:50;23.70;62.50
11188;DHT22;5650;52.700;7.306;2023-06-14T09:36:18;23.40;63.80
11188;DHT22;5650;52.700;7.306;2023-06-14T09:38:56;23.30;64.10
11188;DHT22;5650;52.700;7.306;2023-06-14T09:41:31;23.20;65.40
11188;DHT22;5650;52.700;7.306;2023-06-14T09:44:00;23.20;65.80
11188;DHT22;5650;52.700;7.306;2023-06-14T09:46:29;23.20;65.30
11188;DHT22;5650;52.700;7.306;2023-06-14T09:48:59;23.20;65.90
11188;DHT22;5650;52.700;7.306;2023-06-14T09:51:27;23.30;65.60
11188;DHT22;5650;52.700;7.306;2023-06-14T09:54:02;23.20;65.30
11188;DHT22;5650;52.700;7.306;2023-06-14T09:56:34;23.20;65.80
11188;DHT22;5650;52.700;7.306;2023-06-14T09:59:06;23.20;64.90
11188;DHT22;5650;52.700;7.306;2023-06-14T10:01:44;23.20;64.30
11188;DHT22;5650;52.700;7.306;2023-06-14T10:04:15;23.30;64.50
11188;DHT22;5650;52.700;7.306;2023-06-14T10:06:48;23.30;65.70
11188;DHT22;5650;52.700;7.306;2023-06-14T10:09:19;23.30;65.80
11188;DHT22;5650;52.700;7.306;2023-06-14T10:11:55;23.40;65.50
11188;DHT22;5650;52.700;7.306;2023-06-14T10:14:22;23.40;65.30
11188;DHT22;5650;52.700;7.306;2023-06-14T10:16:54;23.40;65.20
11188;DHT22;5650;52.700;7.306;2023-06-14T10:19:28;23.30;66.30
11188;DHT22;5650;52.700;7.306;2023-06-14T10:22:08;23.20;66.80
11188;DHT22;5650;52.700;7.306;2023-06-14T10:24:41;23.10;66.30
11188;DHT22;5650;52.700;7.306;2023-06-14T10:27:09;23.00;66.30
11188;DHT22;5650;52.700;7.306;2023-06-14T10:30:02;23.00;66.30
11188;DHT22;5650;52.700;7.306;2023-06-14T10:33:05;23.10;65.50
11188;DHT22;5650;52.700;7.306;2023-06-14T10:35:35;23.10;65.80
11188;DHT22;5650;52.700;7.306;2023-06-14T10:38:09;23.20;66.60
11188;DHT22;5650;52.700;7.306;2023-06-14T10:40:42;23.20;66.80
11188;DHT22;5650;52.700;7.306;2023-06-14T10:43:26;23.30;66.50
11188;DHT22;5650;52.700;7.306;2023-06-14T10:46:17;23.20;66.50
11188;DHT22;5650;52.700;7.306;2023-06-14T10:48:47;23.20;66.50
11188;DHT22;5650;52.700;7.306;2023-06-14T10:51:20;23.20;66.40
11188;DHT22;5650;52.700;7.306;2023-06-14T10:53:51;23.20;66.80
11188;DHT22;5650;52.700;7.306;2023-06-14T10:56:27;23.30;67.40
11188;DHT22;5650;52.700;7.306;2023-06-14T10:59:02;23.30;67.40
11188;DHT22;5650;52.700;7.306;2023-06-14T11:01:35;23.40;67.20
11188;DHT22;5650;52.700;7.306;2023-06-14T11:04:10;23.40;67.60
11188;DHT22;5650;52.700;7.306;2023-06-14T11:06:49;23.60;67.70
11188;DHT22;5650;52.700;7.306;2023-06-14T11:12:26;23.70;67.00
11188;DHT22;5650;52.700;7.306;2023-06-14T11:14:55;23.70;66.60
11188;DHT22;5650;52.700;7.306;2023-06-14T11:17:24;23.70;66.70
11188;DHT22;5650;52.700;7.306;2023-06-14T11:20:07;23.80;66.70
11188;DHT22;5650;52.700;7.306;2023-06-14T11:22:45;23.70;65.80
11188;DHT22;5650;52.700;7.306;2023-06-14T11:25:12;23.60;66.40
11188;DHT22;5650;52.700;7.306;2023-06-14T11:27:46;23.70;67.30
11188;DHT22;5650;52.700;7.306;2023-06-14T11:30:16;23.70;67.60
11188;DHT22;5650;52.700;7.306;2023-06-14T11:32:48;23.90;67.30
11188;DHT22;5650;52.700;7.306;2023-06-14T11:35:19;23.90;66.70
11188;DHT22;5650;52.700;7.306;2023-06-14T11:37:53;23.90;67.60
11188;DHT22;5650;52.700;7.306;2023-06-14T11:40:24;24.10;67.80
11188;DHT22;5650;52.700;7.306;2023-06-14T11:42:59;24.20;66.90
11188;DHT22;5650;52.700;7.306;2023-06-14T11:45:30;24.20;66.40
11188;DHT22;5650;52.700;7.306;2023-06-14T11:48:01;24.20;66.10
11188;DHT22;5650;52.700;7.306;2023-06-14T11:50:28;24.20;66.60
11188;DHT22;5650;52.700;7.306;2023-06-14T11:53:02;24.30;66.70
11188;DHT22;5650;52.700;7.306;2023-06-14T11:55:35;24.40;66.30
11188;DHT22;5650;52.700;7.306;2023-06-14T11:58:03;24.40;65.70
11188;DHT22;5650;52.700;7.306;2023-06-14T12:00:32;24.30;65.50
11188;DHT22;5650;52.700;7.306;2023-06-14T12:03:02;24.20;66.30
11188;DHT22;5650;52.700;7.306;2023-06-14T12:05:40;24.20;66.00
11188;DHT22;5650;52.700;7.306;2023-06-14T12:08:09;24.10;66.10
11188;DHT22;5650;52.700;7.306;2023-06-14T12:10:45;24.10;66.90
11188;DHT22;5650;52.700;7.306;2023-06-14T12:13:19;24.10;66.10
11188;DHT22;5650;52.700;7.306;2023-06-14T12:16:01;24.10;66.70
11188;DHT22;5650;52.700;7.306;2023-06-14T12:18:32;24.00;66.80
11188;DHT22;5650;52.700;7.306;2023-06-14T12:21:07;24.10;67.70
11188;DHT22;5650;52.700;7.306;2023-06-14T12:23:42;24.20;66.80
11188;DHT22;5650;52.700;7.306;2023-06-14T12:26:12;24.20;66.70
11188;DHT22;5650;52.700;7.306;2023-06-14T12:28:40;24.30;66.30
11188;DHT22;5650;52.700;7.306;2023-06-14T12:31:08;24.30;66.00
11188;DHT22;5650;52.700;7.306;2023-06-14T12:33:35;24.30;65.60
11188;DHT22;5650;52.700;7.306;2023-06-14T12:36:04;24.20;66.40
11188;DHT22;5650;52.700;7.306;2023-06-14T12:38:42;24.20;66.20
11188;DHT22;5650;52.700;7.306;2023-06-14T12:41:11;24.30;66.60
11188;DHT22;5650;52.700;7.306;2023-06-14T12:43:40;24.40;67.00
11188;DHT22;5650;52.700;7.306;2023-06-14T12:46:07;24.50;67.10
11188;DHT22;5650;52.700;7.306;2023-06-14T12:48:37;24.70;65.90
11188;DHT22;5650;52.700;7.306;2023-06-14T12:51:10;24.80;65.50
11188;DHT22;5650;52.700;7.306;2023-06-14T12:53:39;25.00;65.70
11188;DHT22;5650;52.700;7.306;2023-06-14T12:56:08;25.10;66.00
11188;DHT22;5650;52.700;7.306;2023-06-14T12:58:35;25.20;64.60
11188;DHT22;5650;52.700;7.306;2023-06-14T13:01:02;25.20;63.70
11188;DHT22;5650;52.700;7.306;2023-06-14T13:03:29;25.10;64.30
11188;DHT22;5650;52.700;7.306;2023-06-14T13:06:02;25.20;65.30
11188;DHT22;5650;52.700;7.306;2023-06-14T13:08:32;25.30;64.50
11188;DHT22;5650;52.700;7.306;2023-06-14T13:11:04;25.30;65.30
11188;DHT22;5650;52.700;7.306;2023-06-14T13:13:39;25.40;64.80
11188;DHT22;5650;52.700;7.306;2023-06-14T13:16:06;25.30;64.00
11188;DHT22;5650;52.700;7.306;2023-06-14T13:18:36;25.20;63.60
11188;DHT22;5650;52.700;7.306;2023-06-14T13:21:03;25.20;63.70
11188;DHT22;5650;52.700;7.306;2023-06-14T13:23:30;25.30;64.20
11188;DHT22;5650;52.700;7.306;2023-06-14T13:26:03;25.30;63.90
11188;DHT22;5650;52.700;7.306;2023-06-14T13:28:35;25.40;64.10
11188;DHT22;5650;52.700;7.306;2023-06-14T13:31:05;25.60;64.30
11188;DHT22;5650;52.700;7.306;2023-06-14T13:33:32;25.70;64.60
11188;DHT22;5650;52.700;7.306;2023-06-14T13:35:59;25.80;63.50
11188;DHT22;5650;52.700;7.306;2023-06-14T13:38:29;25.60;63.70
11188;DHT22;5650;52.700;7.306;2023-06-14T13:40:57;25.40;64.20
11188;DHT22;5650;52.700;7.306;2023-06-14T13:43:24;25.30;64.30
11188;DHT22;5650;52.700;7.306;2023-06-14T13:45:53;25.20;64.20
11188;DHT22;5650;52.700;7.306;2023-06-14T13:48:20;25.20;64.40
11188;DHT22;5650;52.700;7.306;2023-06-14T13:50:53;25.00;63.90
11188;DHT22;5650;52.700;7.306;2023-06-14T13:53:29;24.90;64.70
11188;DHT22;5650;52.700;7.306;2023-06-14T13:55:56;24.90;64.90
11188;DHT22;5650;52.700;7.306;2023-06-14T13:58:24;25.10;65.50
11188;DHT22;5650;52.700;7.306;2023-06-14T14:00:55;25.30;64.80
11188;DHT22;5650;52.700;7.306;2023-06-14T14:03:22;25.50;63.50
11188;DHT22;5650;52.700;7.306;2023-06-14T14:05:55;25.60;63.50
11188;DHT22;5650;52.700;7.306;2023-06-14T14:08:23;25.60;63.90
11188;DHT22;5650;52.700;7.306;2023-06-14T14:10:50;25.50;63.70
11188;DHT22;5650;52.700;7.306;2023-06-14T14:13:17;25.40;64.30
11188;DHT22;5650;52.700;7.306;2023-06-14T14:15:45;25.20;64.20
11188;DHT22;5650;52.700;7.306;2023-06-14T14:18:13;25.10;62.80
11188;DHT22;5650;52.700;7.306;2023-06-14T14:20:49;25.00;62.80
11188;DHT22;5650;52.700;7.306;2023-06-14T14:23:17;24.90;63.00
11188;DHT22;5650;52.700;7.306;2023-06-14T14:25:45;24.80;62.60
11188;DHT22;5650;52.700;7.306;2023-06-14T14:28:20;24.80;63.40
11188;DHT22;5650;52.700;7.306;2023-06-14T14:30:50;24.80;63.60
11188;DHT22;5650;52.700;7.306;2023-06-14T14:33:20;24.90;62.80
11188;DHT22;5650;52.700;7.306;2023-06-14T14:35:48;25.10;63.20
11188;DHT22;5650;52.700;7.306;2023-06-14T14:38:15;25.30;63.30
11188;DHT22;5650;52.700;7.306;2023-06-14T14:40:45;25.40;62.20
11188;DHT22;5650;52.700;7.306;2023-06-14T14:43:13;25.40;62.00
11188;DHT22;5650;52.700;7.306;2023-06-14T14:45:40;25.50;62.10
11188;DHT22;5650;52.700;7.306;2023-06-14T14:48:07;25.50;62.80
11188;DHT22;5650;52.700;7.306;2023-06-14T14:50:38;25.60;62.40
11188;DHT22;5650;52.700;7.306;2023-06-14T14:53:05;25.40;61.60
11188;DHT22;5650;52.700;7.306;2023-06-14T14:55:32;25.20;61.70
11188;DHT22;5650;52.700;7.306;2023-06-14T14:58:01;25.10;62.40
11188;DHT22;5650;52.700;7.306;2023-06-14T15:00:29;25.00;64.00
11188;DHT22;5650;52.700;7.306;2023-06-14T15:02:56;24.90;63.20
11188;DHT22;5650;52.700;7.306;2023-06-14T15:05:23;25.00;63.40
11188;DHT22;5650;52.700;7.306;2023-06-14T15:07:54;25.10;63.30
11188;DHT22;5650;52.700;7.306;2023-06-14T15:10:22;25.20;62.70
11188;DHT22;5650;52.700;7.306;2023-06-14T15:12:52;25.30;62.70
11188;DHT22;5650;52.700;7.306;2023-06-14T15:15:22;25.40;61.30
11188;DHT22;5650;52.700;7.306;2023-06-14T15:17:53;25.40;61.10
11188;DHT22;5650;52.700;7.306;2023-06-14T15:20:20;25.40;61.60
11188;DHT22;5650;52.700;7.306;2023-06-14T15:22:48;25.40;61.20
11188;DHT22;5650;52.700;7.306;2023-06-14T15:25:16;25.40;61.00
11188;DHT22;5650;52.700;7.306;2023-06-14T15:27:50;25.50;61.30
11188;DHT22;5650;52.700;7.306;2023-06-14T15:30:17;25.50;61.30
11188;DHT22;5650;52.700;7.306;2023-06-14T15:32:44;25.50;61.50
11188;DHT22;5650;52.700;7.306;2023-06-14T15:35:11;25.60;61.60
11188;DHT22;5650;52.700;7.306;2023-06-14T15:37:38;25.60;61.50
11188;DHT22;5650;52.700;7.306;2023-06-14T15:40:06;25.70;61.90
11188;DHT22;5650;52.700;7.306;2023-06-14T15:42:35;25.60;61.20
11188;DHT22;5650;52.700;7.306;2023-06-14T15:45:03;25.60;61.20
11188;DHT22;5650;52.700;7.306;2023-06-14T15:47:31;25.70;62.10
11188;DHT22;5650;52.700;7.306;2023-06-14T15:49:58;25.70;61.90
11188;DHT22;5650;52.700;7.306;2023-06-14T15:52:25;25.70;62.00
11188;DHT22;5650;52.700;7.306;2023-06-14T15:54:53;25.60;61.70
11188;DHT22;5650;52.700;7.306;2023-06-14T15:57:20;25.50;61.90
11188;DHT22;5650;52.700;7.306;2023-06-14T15:59:49;25.30;61.60
11188;DHT22;5650;52.700;7.306;2023-06-14T16:02:16;25.20;62.30
11188;DHT22;5650;52.700;7.306;2023-06-14T16:04:43;25.10;62.40
11188;DHT22;5650;52.700;7.306;2023-06-14T16:07:10;25.10;63.20